Time,TemperatureF,DewpointF,PressureIn,WindDirection,WindDirectionDegrees,WindSpeedMPH,WindSpeedGustMPH,Humidity,HourlyPrecipIn,Conditions,Clouds,dailyrainin,SoftwareType,DateUTC
2013-08-20 00:01:00,61.3,58.0,30.09,SSW,194,1.0,2.0,89,0.00,,,0.00,Weather View 32 v70,2013-08-20 04:01:00,
2013-08-20 00:02:00,61.3,58.0,30.09,NNE,33,1.0,2.0,89,0.00,,,0.00,Weather View 32 v70,2013-08-20 04:02:00,
2013-08-20 00:07:00,61.5,58.2,30.09,NE,44,1.0,2.0,89,0.00,,,0.00,Weather View 32 v70,2013-08-20 04:07:00,
2013-08-20 00:12:00,61.7,58.4,30.09,NNE,13,1.0,2.0,89,0.00,,,0.00,Weather View 32 v70,2013-08-20 04:12:00,
2013-08-20 00:17:00,61.8,58.8,30.10,ESE,119,1.0,2.0,90,0.00,,,0.00,Weather View 32 v70,2013-08-20 04:17:00,
2013-08-20 00:22:00,62.0,59.0,30.09,ENE,74,2.0,2.0,90,0.00,,,0.00,Weather View 32 v70,2013-08-20 04:22:00,
2013-08-20 00:27:00,62.4,59.4,30.09,SE,128,2.0,3.0,90,0.00,,,0.00,Weather View 32 v70,2013-08-20 04:27:00,
2013-08-20 00:32:00,62.2,59.2,30.09,ESE,105,2.0,3.0,90,0.00,,,0.00,Weather View 32 v70,2013-08-20 04:32:00,
2013-08-20 00:37:00,62.6,59.3,30.09,ESE,113,2.0,3.0,89,0.00,,,0.00,Weather View 32 v70,2013-08-20 04:37:00,
2013-08-20 00:42:00,62.4,59.1,30.09,ESE,114,0.0,3.0,89,0.00,,,0.00,Weather View 32 v70,2013-08-20 04:42:00,
2013-08-20 00:47:00,62.4,59.1,30.10,SE,126,1.0,3.0,89,0.00,,,0.00,Weather View 32 v70,2013-08-20 04:47:00,
2013-08-20 00:52:00,62.2,58.9,30.10,NNE,32,1.0,3.0,89,0.00,,,0.00,Weather View 32 v70,2013-08-20 04:52:00,
2013-08-20 00:57:00,61.5,58.2,30.10,ENE,64,1.0,3.0,89,0.00,,,0.00,Weather View 32 v70,2013-08-20 04:57:00,
2013-08-20 01:02:00,61.5,58.2,30.10,ESE,102,1.0,3.0,89,0.00,,,0.00,Weather View 32 v70,2013-08-20 05:02:00,
2013-08-20 01:07:00,61.1,57.8,30.10,East,93,1.0,3.0,89,0.00,,,0.00,Weather View 32 v70,2013-08-20 05:07:00,
2013-08-20 01:12:00,60.8,57.5,30.10,ENE,71,1.0,3.0,89,0.00,,,0.00,Weather View 32 v70,2013-08-20 05:12:00,
2013-08-20 01:17:00,60.8,57.5,30.10,West,272,0.0,3.0,89,0.00,,,0.00,Weather View 32 v70,2013-08-20 05:17:00,
2013-08-20 01:22:00,60.6,57.3,30.10,NNW,338,1.0,3.0,89,0.00,,,0.00,Weather View 32 v70,2013-08-20 05:22:00,
2013-08-20 01:27:00,60.4,57.4,30.10,ESE,122,1.0,3.0,90,0.00,,,0.00,Weather View 32 v70,2013-08-20 05:27:00,
2013-08-20 01:32:00,60.6,57.6,30.10,NNW,329,0.0,3.0,90,0.00,,,0.00,Weather View 32 v70,2013-08-20 05:32:00,
2013-08-20 01:37:00,60.4,57.4,30.10,ENE,77,0.0,3.0,90,0.00,,,0.00,Weather View 32 v70,2013-08-20 05:37:00,
2013-08-20 01:42:00,60.2,57.2,30.10,ESE,121,1.0,3.0,90,0.00,,,0.00,Weather View 32 v70,2013-08-20 05:42:00,
2013-08-20 01:47:00,60.4,57.8,30.10,East,94,1.0,3.0,91,0.00,,,0.00,Weather View 32 v70,2013-08-20 05:47:00,
2013-08-20 01:52:00,60.2,57.6,30.10,NW,305,2.0,3.0,91,0.00,,,0.00,Weather View 32 v70,2013-08-20 05:52:00,
2013-08-20 01:57:00,60.2,57.6,30.10,East,80,1.0,3.0,91,0.00,,,0.00,Weather View 32 v70,2013-08-20 05:57:00,
2013-08-20 02:02:00,60.2,57.6,30.10,ENE,58,2.0,3.0,91,0.00,,,0.00,Weather View 32 v70,2013-08-20 06:02:00,
2013-08-20 02:07:00,60.0,57.4,30.10,ESE,111,1.0,3.0,91,0.00,,,0.00,Weather View 32 v70,2013-08-20 06:07:00,
2013-08-20 02:12:00,59.9,57.3,30.10,NNE,29,1.0,3.0,91,0.00,,,0.00,Weather View 32 v70,2013-08-20 06:12:00,
2013-08-20 02:17:00,59.9,57.3,30.10,WSW,245,0.0,3.0,91,0.00,,,0.00,Weather View 32 v70,2013-08-20 06:17:00,
2013-08-20 02:22:00,60.0,57.7,30.11,ESE,110,2.0,3.0,92,0.00,,,0.00,Weather View 32 v70,2013-08-20 06:22:00,
2013-08-20 02:27:00,60.2,57.9,30.10,East,93,1.0,3.0,92,0.00,,,0.00,Weather View 32 v70,2013-08-20 06:27:00,
2013-08-20 02:32:00,60.0,57.7,30.11,North,352,2.0,3.0,92,0.00,,,0.00,Weather View 32 v70,2013-08-20 06:32:00,
2013-08-20 02:37:00,59.7,57.4,30.11,ESE,108,2.0,3.0,92,0.00,,,0.00,Weather View 32 v70,2013-08-20 06:37:00,
2013-08-20 02:42:00,59.9,57.6,30.11,NW,304,2.0,3.0,92,0.00,,,0.00,Weather View 32 v70,2013-08-20 06:42:00,
2013-08-20 02:47:00,59.7,57.4,30.11,NW,312,2.0,3.0,92,0.00,,,0.00,Weather View 32 v70,2013-08-20 06:47:00,
2013-08-20 02:52:00,59.7,57.4,30.12,North,349,2.0,3.0,92,0.00,,,0.00,Weather View 32 v70,2013-08-20 06:52:00,
2013-08-20 02:57:00,59.5,57.2,30.12,NNE,30,1.0,3.0,92,0.00,,,0.00,Weather View 32 v70,2013-08-20 06:57:00,
2013-08-20 03:02:00,59.5,57.2,30.12,NNE,16,0.0,3.0,92,0.00,,,0.00,Weather View 32 v70,2013-08-20 07:02:00,
2013-08-20 03:07:00,59.5,57.2,30.12,NNE,15,0.0,3.0,92,0.00,,,0.00,Weather View 32 v70,2013-08-20 07:07:00,
2013-08-20 03:12:00,59.3,57.0,30.12,NE,50,0.0,3.0,92,0.00,,,0.00,Weather View 32 v70,2013-08-20 07:12:00,
2013-08-20 03:17:00,59.0,56.7,30.11,SW,227,0.0,3.0,92,0.00,,,0.00,Weather View 32 v70,2013-08-20 07:17:00,
2013-08-20 03:22:00,58.6,56.3,30.12,West,274,0.0,3.0,92,0.00,,,0.00,Weather View 32 v70,2013-08-20 07:22:00,
2013-08-20 03:27:00,58.6,56.3,30.12,WNW,302,0.0,3.0,92,0.00,,,0.00,Weather View 32 v70,2013-08-20 07:27:00,
2013-08-20 03:32:00,58.2,55.9,30.11,North,6,0.0,3.0,92,0.00,,,0.00,Weather View 32 v70,2013-08-20 07:32:00,
2013-08-20 03:37:00,57.9,55.6,30.11,NNW,348,0.0,3.0,92,0.00,,,0.00,Weather View 32 v70,2013-08-20 07:37:00,
2013-08-20 03:42:00,58.1,55.8,30.11,WSW,240,0.0,3.0,92,0.00,,,0.00,Weather View 32 v70,2013-08-20 07:42:00,
2013-08-20 03:47:00,57.5,55.2,30.12,SSW,195,0.0,3.0,92,0.00,,,0.00,Weather View 32 v70,2013-08-20 07:47:00,
2013-08-20 03:52:00,57.3,55.0,30.12,NW,319,0.0,2.0,92,0.00,,,0.00,Weather View 32 v70,2013-08-20 07:52:00,
2013-08-20 03:57:00,57.2,54.9,30.12,NNW,331,1.0,1.0,92,0.00,,,0.00,Weather View 32 v70,2013-08-20 07:57:00,
2013-08-20 04:02:00,57.0,54.7,30.12,North,355,0.0,1.0,92,0.00,,,0.00,Weather View 32 v70,2013-08-20 08:02:00,
2013-08-20 04:07:00,56.8,54.8,30.13,SSW,209,0.0,1.0,93,0.00,,,0.00,Weather View 32 v70,2013-08-20 08:07:00,
2013-08-20 04:12:00,56.8,54.5,30.13,West,274,0.0,1.0,92,0.00,,,0.00,Weather View 32 v70,2013-08-20 08:12:00,
2013-08-20 04:17:00,56.8,54.5,30.12,North,9,0.0,1.0,92,0.00,,,0.00,Weather View 32 v70,2013-08-20 08:17:00,
2013-08-20 04:22:00,56.8,54.5,30.13,North,9,0.0,1.0,92,0.00,,,0.00,Weather View 32 v70,2013-08-20 08:22:00,
2013-08-20 04:27:00,56.4,54.4,30.12,NNW,328,0.0,1.0,93,0.00,,,0.00,Weather View 32 v70,2013-08-20 08:27:00,
2013-08-20 04:32:00,56.4,54.4,30.12,NW,319,0.0,1.0,93,0.00,,,0.00,Weather View 32 v70,2013-08-20 08:32:00,
2013-08-20 04:37:00,56.3,54.3,30.12,South,191,0.0,1.0,93,0.00,,,0.00,Weather View 32 v70,2013-08-20 08:37:00,
2013-08-20 04:42:00,56.1,54.1,30.13,SSW,196,0.0,1.0,93,0.00,,,0.00,Weather View 32 v70,2013-08-20 08:42:00,
2013-08-20 04:47:00,56.1,54.1,30.13,SSW,211,0.0,1.0,93,0.00,,,0.00,Weather View 32 v70,2013-08-20 08:47:00,
2013-08-20 04:52:00,56.1,54.1,30.13,SW,220,0.0,1.0,93,0.00,,,0.00,Weather View 32 v70,2013-08-20 08:52:00,
2013-08-20 04:57:00,55.9,53.9,30.14,South,178,0.0,1.0,93,0.00,,,0.00,Weather View 32 v70,2013-08-20 08:57:00,
2013-08-20 05:02:00,55.5,53.5,30.14,ENE,63,0.0,1.0,93,0.00,,,0.00,Weather View 32 v70,2013-08-20 09:02:00,
2013-08-20 05:07:00,55.5,53.5,30.14,ENE,71,0.0,1.0,93,0.00,,,0.00,Weather View 32 v70,2013-08-20 09:07:00,
2013-08-20 05:12:00,55.4,53.4,30.14,WSW,248,0.0,1.0,93,0.00,,,0.00,Weather View 32 v70,2013-08-20 09:12:00,
2013-08-20 05:17:00,55.2,53.2,30.14,NE,38,0.0,1.0,93,0.00,,,0.00,Weather View 32 v70,2013-08-20 09:17:00,
2013-08-20 05:22:00,55.2,53.2,30.14,SSW,208,1.0,1.0,93,0.00,,,0.00,Weather View 32 v70,2013-08-20 09:22:00,
2013-08-20 05:27:00,55.2,53.2,30.15,ESE,116,0.0,1.0,93,0.00,,,0.00,Weather View 32 v70,2013-08-20 09:27:00,
2013-08-20 05:32:00,55.0,53.0,30.15,NW,314,0.0,1.0,93,0.00,,,0.00,Weather View 32 v70,2013-08-20 09:32:00,
2013-08-20 05:37:00,55.0,53.0,30.15,NNW,341,0.0,1.0,93,0.00,,,0.00,Weather View 32 v70,2013-08-20 09:37:00,
2013-08-20 05:42:00,54.8,52.8,30.15,WSW,252,0.0,1.0,93,0.00,,,0.00,Weather View 32 v70,2013-08-20 09:42:00,
2013-08-20 05:47:00,54.6,52.6,30.15,NW,307,1.0,1.0,93,0.00,,,0.00,Weather View 32 v70,2013-08-20 09:47:00,
2013-08-20 05:52:00,54.8,52.8,30.16,SE,140,0.0,1.0,93,0.00,,,0.00,Weather View 32 v70,2013-08-20 09:52:00,
2013-08-20 05:57:00,54.6,52.6,30.15,WNW,291,0.0,1.0,93,0.00,,,0.00,Weather View 32 v70,2013-08-20 09:57:00,
2013-08-20 06:02:00,54.6,52.6,30.15,ENE,75,0.0,1.0,93,0.00,,,0.00,Weather View 32 v70,2013-08-20 10:02:00,
2013-08-20 06:07:00,54.6,52.6,30.16,ENE,67,0.0,1.0,93,0.00,,,0.00,Weather View 32 v70,2013-08-20 10:07:00,
2013-08-20 06:12:00,54.6,52.6,30.16,WNW,300,1.0,1.0,93,0.00,,,0.00,Weather View 32 v70,2013-08-20 10:12:00,
2013-08-20 06:17:00,54.8,52.8,30.16,West,272,0.0,1.0,93,0.00,,,0.00,Weather View 32 v70,2013-08-20 10:17:00,
2013-08-20 06:22:00,54.6,52.6,30.16,NW,306,0.0,1.0,93,0.00,,,0.00,Weather View 32 v70,2013-08-20 10:22:00,
2013-08-20 06:27:00,54.8,52.8,30.16,NNW,334,0.0,1.0,93,0.00,,,0.00,Weather View 32 v70,2013-08-20 10:27:00,
2013-08-20 06:32:00,54.6,52.6,30.16,WNW,291,0.0,1.0,93,0.00,,,0.00,Weather View 32 v70,2013-08-20 10:32:00,
2013-08-20 06:37:00,54.6,52.6,30.16,West,263,0.0,1.0,93,0.00,,,0.00,Weather View 32 v70,2013-08-20 10:37:00,
2013-08-20 06:42:00,54.8,52.8,30.17,WSW,241,1.0,1.0,93,0.00,,,0.00,Weather View 32 v70,2013-08-20 10:42:00,
2013-08-20 06:47:00,55.0,53.0,30.16,SW,224,0.0,1.0,93,0.00,,,0.00,Weather View 32 v70,2013-08-20 10:47:00,
2013-08-20 06:52:00,55.2,53.2,30.16,NE,53,0.0,1.0,93,0.00,,,0.00,Weather View 32 v70,2013-08-20 10:52:00,
2013-08-20 06:57:00,55.5,53.5,30.17,SE,135,0.0,1.0,93,0.00,,,0.00,Weather View 32 v70,2013-08-20 10:57:00,
2013-08-20 07:02:00,56.1,54.1,30.16,NW,321,0.0,1.0,93,0.00,,,0.00,Weather View 32 v70,2013-08-20 11:02:00,
2013-08-20 07:07:00,56.6,54.6,30.16,SW,214,0.0,1.0,93,0.00,,,0.00,Weather View 32 v70,2013-08-20 11:07:00,
2013-08-20 07:12:00,57.0,55.0,30.16,NNE,24,0.0,1.0,93,0.00,,,0.00,Weather View 32 v70,2013-08-20 11:12:00,
2013-08-20 07:17:00,57.2,55.2,30.16,North,8,0.0,1.0,93,0.00,,,0.00,Weather View 32 v70,2013-08-20 11:17:00,
2013-08-20 07:22:00,57.9,55.9,30.16,NNE,23,0.0,1.0,93,0.00,,,0.00,Weather View 32 v70,2013-08-20 11:22:00,
2013-08-20 07:27:00,58.2,56.2,30.16,South,171,0.0,1.0,93,0.00,,,0.00,Weather View 32 v70,2013-08-20 11:27:00,
2013-08-20 07:32:00,59.3,57.3,30.16,SSE,154,1.0,2.0,93,0.00,,,0.00,Weather View 32 v70,2013-08-20 11:32:00,
2013-08-20 07:37:00,59.5,57.5,30.16,South,171,2.0,2.0,93,0.00,,,0.00,Weather View 32 v70,2013-08-20 11:37:00,
2013-08-20 07:42:00,60.0,58.0,30.16,ESE,106,1.0,2.0,93,0.00,,,0.00,Weather View 32 v70,2013-08-20 11:42:00,
2013-08-20 07:47:00,60.2,58.2,30.16,NNW,343,0.0,2.0,93,0.00,,,0.00,Weather View 32 v70,2013-08-20 11:47:00,
2013-08-20 07:52:00,60.6,58.6,30.15,NNE,25,0.0,2.0,93,0.00,,,0.00,Weather View 32 v70,2013-08-20 11:52:00,
2013-08-20 07:57:00,61.1,59.1,30.16,SSW,210,0.0,2.0,93,0.00,,,0.00,Weather View 32 v70,2013-08-20 11:57:00,
2013-08-20 08:02:00,62.2,60.1,30.15,West,281,0.0,2.0,93,0.00,,,0.00,Weather View 32 v70,2013-08-20 12:02:00,
2013-08-20 08:07:00,62.6,60.5,30.15,East,85,1.0,3.0,93,0.00,,,0.00,Weather View 32 v70,2013-08-20 12:07:00,
2013-08-20 08:12:00,63.1,61.0,30.15,South,179,1.0,3.0,93,0.00,,,0.00,Weather View 32 v70,2013-08-20 12:12:00,
2013-08-20 08:17:00,63.8,62.0,30.15,South,169,2.0,3.0,94,0.00,,,0.00,Weather View 32 v70,2013-08-20 12:17:00,
2013-08-20 08:22:00,64.2,61.8,30.15,SE,133,1.0,4.0,92,0.00,,,0.00,Weather View 32 v70,2013-08-20 12:22:00,
2013-08-20 08:27:00,65.4,62.1,30.15,ESE,117,2.0,4.0,89,0.00,,,0.00,Weather View 32 v70,2013-08-20 12:27:00,
2013-08-20 08:32:00,65.8,60.8,30.15,SE,134,4.0,4.0,84,0.00,,,0.00,Weather View 32 v70,2013-08-20 12:32:00,
2013-08-20 08:37:00,65.8,60.5,30.14,SE,131,3.0,5.0,83,0.00,,,0.00,Weather View 32 v70,2013-08-20 12:37:00,
2013-08-20 08:42:00,66.2,60.9,30.14,SSE,160,2.0,5.0,83,0.00,,,0.00,Weather View 32 v70,2013-08-20 12:42:00,
2013-08-20 08:47:00,66.3,61.0,30.14,SSE,156,2.0,5.0,83,0.00,,,0.00,Weather View 32 v70,2013-08-20 12:47:00,
2013-08-20 08:52:00,66.3,61.0,30.14,SE,142,2.0,5.0,83,0.00,,,0.00,Weather View 32 v70,2013-08-20 12:52:00,
2013-08-20 08:57:00,66.7,60.7,30.14,SSE,165,1.0,5.0,81,0.00,,,0.00,Weather View 32 v70,2013-08-20 12:57:00,
2013-08-20 09:02:00,67.4,61.7,30.14,SSE,163,2.0,5.0,82,0.00,,,0.00,Weather View 32 v70,2013-08-20 13:02:00,
2013-08-20 09:07:00,68.0,61.9,30.14,ESE,107,2.0,5.0,81,0.00,,,0.00,Weather View 32 v70,2013-08-20 13:07:00,
2013-08-20 09:12:00,68.3,61.9,30.14,SSE,150,3.0,5.0,80,0.00,,,0.00,Weather View 32 v70,2013-08-20 13:12:00,
2013-08-20 09:17:00,68.5,61.7,30.14,SE,146,3.0,5.0,79,0.00,,,0.00,Weather View 32 v70,2013-08-20 13:17:00,
2013-08-20 09:22:00,68.7,61.9,30.14,SE,127,3.0,5.0,79,0.00,,,0.00,Weather View 32 v70,2013-08-20 13:22:00,
2013-08-20 09:27:00,69.0,61.8,30.13,ESE,122,3.0,5.0,78,0.00,,,0.00,Weather View 32 v70,2013-08-20 13:27:00,
2013-08-20 09:32:00,69.8,63.0,30.13,SSE,158,2.0,5.0,79,0.00,,,0.00,Weather View 32 v70,2013-08-20 13:32:00,
2013-08-20 09:37:00,70.1,62.5,30.13,ESE,109,3.0,5.0,77,0.00,,,0.00,Weather View 32 v70,2013-08-20 13:37:00,
2013-08-20 09:42:00,70.8,63.6,30.13,SE,145,2.0,5.0,78,0.00,,,0.00,Weather View 32 v70,2013-08-20 13:42:00,
2013-08-20 09:47:00,71.6,62.5,30.13,WSW,237,1.0,5.0,73,0.00,,,0.00,Weather View 32 v70,2013-08-20 13:47:00,
2013-08-20 09:52:00,72.6,63.8,30.13,ESE,105,2.0,5.0,74,0.00,,,0.00,Weather View 32 v70,2013-08-20 13:52:00,
2013-08-20 09:57:00,73.5,63.9,30.12,SSE,155,3.0,5.0,72,0.00,,,0.00,Weather View 32 v70,2013-08-20 13:57:00,
2013-08-20 10:02:00,73.9,65.1,30.12,SSE,152,1.0,5.0,74,0.00,,,0.00,Weather View 32 v70,2013-08-20 14:02:00,
2013-08-20 10:07:00,74.1,64.5,30.11,SE,134,2.0,5.0,72,0.00,,,0.00,Weather View 32 v70,2013-08-20 14:07:00,
2013-08-20 10:12:00,74.4,63.9,30.11,South,183,2.0,5.0,70,0.00,,,0.00,Weather View 32 v70,2013-08-20 14:12:00,
2013-08-20 10:17:00,75.0,64.5,30.11,NE,46,1.0,5.0,70,0.00,,,0.00,Weather View 32 v70,2013-08-20 14:17:00,
2013-08-20 10:22:00,76.2,66.5,30.11,East,84,2.0,4.0,72,0.00,,,0.00,Weather View 32 v70,2013-08-20 14:22:00,
2013-08-20 10:27:00,77.0,64.3,30.11,ESE,105,2.0,4.0,65,0.00,,,0.00,Weather View 32 v70,2013-08-20 14:27:00,
2013-08-20 10:32:00,77.9,64.2,30.10,East,99,4.0,4.0,63,0.00,,,0.00,Weather View 32 v70,2013-08-20 14:32:00,
2013-08-20 10:37:00,78.0,64.8,30.09,ESE,121,2.0,6.0,64,0.00,,,0.00,Weather View 32 v70,2013-08-20 14:37:00,
2013-08-20 10:42:00,78.4,64.7,30.09,SSE,149,4.0,6.0,63,0.00,,,0.00,Weather View 32 v70,2013-08-20 14:42:00,
2013-08-20 10:47:00,78.2,64.5,30.09,ESE,109,1.0,6.0,63,0.00,,,0.00,Weather View 32 v70,2013-08-20 14:47:00,
2013-08-20 10:52:00,78.9,65.2,30.09,East,87,1.0,6.0,63,0.00,,,0.00,Weather View 32 v70,2013-08-20 14:52:00,
2013-08-20 10:57:00,79.3,63.2,30.09,SE,139,3.0,6.0,58,0.00,,,0.00,Weather View 32 v70,2013-08-20 14:57:00,
2013-08-20 11:02:00,79.5,64.8,30.08,South,191,2.0,6.0,61,0.00,,,0.00,Weather View 32 v70,2013-08-20 15:02:00,
2013-08-20 11:07:00,80.2,65.5,30.09,SSW,210,1.0,6.0,61,0.00,,,0.00,Weather View 32 v70,2013-08-20 15:07:00,
2013-08-20 11:12:00,80.4,65.2,30.08,ENE,65,1.0,6.0,60,0.00,,,0.00,Weather View 32 v70,2013-08-20 15:12:00,
2013-08-20 11:17:00,81.5,68.1,30.07,NW,326,1.0,6.0,64,0.00,,,0.00,Weather View 32 v70,2013-08-20 15:17:00,
2013-08-20 11:22:00,82.5,66.7,30.07,South,189,2.0,6.0,59,0.00,,,0.00,Weather View 32 v70,2013-08-20 15:22:00,
2013-08-20 11:27:00,82.4,66.1,30.07,SE,145,1.0,6.0,58,0.00,,,0.00,Weather View 32 v70,2013-08-20 15:27:00,
2013-08-20 11:32:00,82.0,65.7,30.07,SSW,204,1.0,6.0,58,0.00,,,0.00,Weather View 32 v70,2013-08-20 15:32:00,
2013-08-20 11:37:00,82.4,68.0,30.07,ENE,63,1.0,5.0,62,0.00,,,0.00,Weather View 32 v70,2013-08-20 15:37:00,
2013-08-20 11:42:00,82.7,65.3,30.07,NE,37,2.0,5.0,56,0.00,,,0.00,Weather View 32 v70,2013-08-20 15:42:00,
2013-08-20 11:47:00,82.5,64.6,30.06,NW,317,2.0,5.0,55,0.00,,,0.00,Weather View 32 v70,2013-08-20 15:47:00,
2013-08-20 11:52:00,82.4,65.1,30.06,ESE,116,3.0,5.0,56,0.00,,,0.00,Weather View 32 v70,2013-08-20 15:52:00,
2013-08-20 11:57:00,82.2,63.8,30.06,NE,42,3.0,5.0,54,0.00,,,0.00,Weather View 32 v70,2013-08-20 15:57:00,
2013-08-20 12:02:00,81.8,63.5,30.06,NNW,331,2.0,5.0,54,0.00,,,0.00,Weather View 32 v70,2013-08-20 16:02:00,
2013-08-20 12:07:00,81.1,63.3,30.06,NW,307,2.0,5.0,55,0.00,,,0.00,Weather View 32 v70,2013-08-20 16:07:00,
2013-08-20 12:12:00,80.4,64.7,30.07,West,276,1.0,7.0,59,0.00,,,0.00,Weather View 32 v70,2013-08-20 16:12:00,
2013-08-20 12:17:00,80.4,62.7,30.07,NNW,341,6.0,7.0,55,0.00,,,0.00,Weather View 32 v70,2013-08-20 16:17:00,
2013-08-20 12:22:00,80.7,63.0,30.07,NNW,332,4.0,9.0,55,0.00,,,0.00,Weather View 32 v70,2013-08-20 16:22:00,
2013-08-20 12:27:00,80.2,63.0,30.07,WNW,297,2.0,9.0,56,0.00,,,0.00,Weather View 32 v70,2013-08-20 16:27:00,
2013-08-20 12:33:00,80.2,62.5,30.07,West,264,3.0,9.0,55,0.00,,,0.00,Weather View 32 v70,2013-08-20 16:33:00,
2013-08-20 12:38:00,81.6,64.3,30.07,North,353,3.0,9.0,56,0.00,,,0.00,Weather View 32 v70,2013-08-20 16:38:00,
2013-08-20 12:43:00,82.5,63.0,30.07,North,352,2.0,9.0,52,0.00,,,0.00,Weather View 32 v70,2013-08-20 16:43:00,
2013-08-20 12:48:00,82.9,63.9,30.07,North,8,2.0,9.0,53,0.00,,,0.00,Weather View 32 v70,2013-08-20 16:48:00,
2013-08-20 12:53:00,82.9,63.4,30.06,WNW,298,2.0,9.0,52,0.00,,,0.00,Weather View 32 v70,2013-08-20 16:53:00,
2013-08-20 12:58:00,83.3,63.2,30.06,WNW,287,2.0,9.0,51,0.00,,,0.00,Weather View 32 v70,2013-08-20 16:58:00,
2013-08-20 13:03:00,84.3,63.6,30.06,WNW,296,1.0,9.0,50,0.00,,,0.00,Weather View 32 v70,2013-08-20 17:03:00,
2013-08-20 13:08:00,84.3,63.0,30.06,NW,314,4.0,10.0,49,0.00,,,0.00,Weather View 32 v70,2013-08-20 17:08:00,
2013-08-20 13:13:00,82.9,62.8,30.06,WNW,302,0.0,10.0,51,0.00,,,0.00,Weather View 32 v70,2013-08-20 17:13:00,
2013-08-20 13:18:00,82.5,62.5,30.06,NNW,331,6.0,10.0,51,0.00,,,0.00,Weather View 32 v70,2013-08-20 17:18:00,
2013-08-20 13:23:00,82.7,62.1,30.06,WSW,244,1.0,10.0,50,0.00,,,0.00,Weather View 32 v70,2013-08-20 17:23:00,
2013-08-20 13:28:00,83.3,63.2,30.06,West,274,2.0,10.0,51,0.00,,,0.00,Weather View 32 v70,2013-08-20 17:28:00,
2013-08-20 13:33:00,83.6,61.8,30.06,North,353,3.0,10.0,48,0.00,,,0.00,Weather View 32 v70,2013-08-20 17:33:00,
2013-08-20 13:38:00,83.8,62.5,30.05,NNW,329,3.0,10.0,49,0.00,,,0.00,Weather View 32 v70,2013-08-20 17:38:00,
2013-08-20 13:43:00,84.3,61.2,30.05,SW,218,2.0,10.0,46,0.00,,,0.00,Weather View 32 v70,2013-08-20 17:43:00,
2013-08-20 13:48:00,83.1,60.1,30.05,NW,312,5.0,10.0,46,0.00,,,0.00,Weather View 32 v70,2013-08-20 17:48:00,
2013-08-20 13:53:00,83.1,62.5,30.05,NW,315,3.0,10.0,50,0.00,,,0.00,Weather View 32 v70,2013-08-20 17:53:00,
2013-08-20 13:58:00,83.4,60.4,30.05,ENE,73,1.0,10.0,46,0.00,,,0.00,Weather View 32 v70,2013-08-20 17:58:00,
2013-08-20 14:03:00,84.2,62.3,30.05,West,277,1.0,10.0,48,0.00,,,0.00,Weather View 32 v70,2013-08-20 18:03:00,
2013-08-20 14:08:00,84.3,61.8,30.04,NNE,12,3.0,9.0,47,0.00,,,0.00,Weather View 32 v70,2013-08-20 18:08:00,
2013-08-20 14:13:00,84.9,62.3,30.04,NW,321,6.0,9.0,47,0.00,,,0.00,Weather View 32 v70,2013-08-20 18:13:00,
2013-08-20 14:18:00,84.5,59.5,30.04,North,359,3.0,9.0,43,0.00,,,0.00,Weather View 32 v70,2013-08-20 18:18:00,
2013-08-20 14:23:00,84.9,61.7,30.04,NNW,332,0.0,9.0,46,0.00,,,0.00,Weather View 32 v70,2013-08-20 18:23:00,
2013-08-20 14:28:00,84.7,61.6,30.04,South,174,1.0,9.0,46,0.00,,,0.00,Weather View 32 v70,2013-08-20 18:28:00,
2013-08-20 14:33:00,85.1,63.7,30.04,NNW,327,2.0,9.0,49,0.00,,,0.00,Weather View 32 v70,2013-08-20 18:33:00,
2013-08-20 14:38:00,85.6,62.4,30.04,NNW,332,4.0,9.0,46,0.00,,,0.00,Weather View 32 v70,2013-08-20 18:38:00,
2013-08-20 14:43:00,85.4,61.6,30.03,NW,317,2.0,9.0,45,0.00,,,0.00,Weather View 32 v70,2013-08-20 18:43:00,
2013-08-20 14:48:00,85.2,62.0,30.03,NW,318,2.0,9.0,46,0.00,,,0.00,Weather View 32 v70,2013-08-20 18:48:00,
2013-08-20 14:53:00,84.7,62.8,30.03,NNW,329,5.0,8.0,48,0.00,,,0.00,Weather View 32 v70,2013-08-20 18:53:00,
2013-08-20 14:58:00,84.2,61.7,30.04,NW,307,3.0,8.0,47,0.00,,,0.00,Weather View 32 v70,2013-08-20 18:58:00,
2013-08-20 15:03:00,84.2,61.7,30.04,NW,311,1.0,9.0,47,0.00,,,0.00,Weather View 32 v70,2013-08-20 19:03:00,
2013-08-20 15:08:00,84.0,62.7,30.04,NW,316,2.0,9.0,49,0.00,,,0.00,Weather View 32 v70,2013-08-20 19:08:00,
2013-08-20 15:13:00,83.8,61.9,30.04,NNW,336,3.0,10.0,48,0.00,,,0.00,Weather View 32 v70,2013-08-20 19:13:00,
2013-08-20 15:18:00,83.6,62.3,30.04,WNW,288,2.0,10.0,49,0.00,,,0.00,Weather View 32 v70,2013-08-20 19:18:00,
2013-08-20 15:23:00,83.3,62.6,30.04,NW,319,3.0,10.0,50,0.00,,,0.00,Weather View 32 v70,2013-08-20 19:23:00,
2013-08-20 15:28:00,83.3,62.1,30.05,North,8,5.0,10.0,49,0.00,,,0.00,Weather View 32 v70,2013-08-20 19:28:00,
2013-08-20 15:33:00,83.1,62.5,30.05,NW,315,2.0,10.0,50,0.00,,,0.00,Weather View 32 v70,2013-08-20 19:33:00,
2013-08-20 15:38:00,83.1,61.3,30.05,NNW,333,5.0,10.0,48,0.00,,,0.00,Weather View 32 v70,2013-08-20 19:38:00,
2013-08-20 15:43:00,82.9,61.7,30.05,SSW,193,2.0,10.0,49,0.00,,,0.00,Weather View 32 v70,2013-08-20 19:43:00,
2013-08-20 15:48:00,82.9,61.1,30.05,NNW,335,5.0,10.0,48,0.00,,,0.00,Weather View 32 v70,2013-08-20 19:48:00,
2013-08-20 15:53:00,82.9,62.3,30.05,West,278,0.0,10.0,50,0.00,,,0.00,Weather View 32 v70,2013-08-20 19:53:00,
2013-08-20 15:58:00,82.7,62.7,30.05,WNW,302,1.0,10.0,51,0.00,,,0.00,Weather View 32 v70,2013-08-20 19:58:00,
2013-08-20 16:03:00,82.4,62.9,30.05,NNW,340,2.0,10.0,52,0.00,,,0.00,Weather View 32 v70,2013-08-20 20:03:00,
2013-08-20 16:08:00,82.4,63.5,30.05,NNW,334,2.0,10.0,53,0.00,,,0.00,Weather View 32 v70,2013-08-20 20:08:00,
2013-08-20 16:13:00,82.5,64.1,30.06,NNW,330,4.0,9.0,54,0.00,,,0.00,Weather View 32 v70,2013-08-20 20:13:00,
2013-08-20 16:18:00,82.4,63.5,30.06,NNW,341,5.0,9.0,53,0.00,,,0.00,Weather View 32 v70,2013-08-20 20:18:00,
2013-08-20 16:23:00,82.4,63.5,30.06,WNW,303,1.0,9.0,53,0.00,,,0.00,Weather View 32 v70,2013-08-20 20:23:00,
2013-08-20 16:28:00,82.2,63.3,30.06,NW,315,3.0,9.0,53,0.00,,,0.00,Weather View 32 v70,2013-08-20 20:28:00,
2013-08-20 16:33:00,82.2,64.4,30.06,NNW,345,4.0,9.0,55,0.00,,,0.00,Weather View 32 v70,2013-08-20 20:33:00,
2013-08-20 16:38:00,82.2,63.3,30.06,SW,217,2.0,9.0,53,0.00,,,0.00,Weather View 32 v70,2013-08-20 20:38:00,
2013-08-20 16:43:00,82.0,63.1,30.06,WNW,303,2.0,9.0,53,0.00,,,0.00,Weather View 32 v70,2013-08-20 20:43:00,
2013-08-20 16:48:00,82.2,63.8,30.06,North,1,1.0,9.0,54,0.00,,,0.00,Weather View 32 v70,2013-08-20 20:48:00,
2013-08-20 16:53:00,82.4,62.9,30.06,NW,322,3.0,9.0,52,0.00,,,0.00,Weather View 32 v70,2013-08-20 20:53:00,
2013-08-20 16:58:00,82.2,63.3,30.06,West,267,1.0,9.0,53,0.00,,,0.00,Weather View 32 v70,2013-08-20 20:58:00,
2013-08-20 17:03:00,82.0,63.1,30.06,NW,309,2.0,9.0,53,0.00,,,0.00,Weather View 32 v70,2013-08-20 21:03:00,
2013-08-20 17:08:00,82.0,64.2,30.06,NNW,333,1.0,9.0,55,0.00,,,0.00,Weather View 32 v70,2013-08-20 21:08:00,
2013-08-20 17:13:00,81.6,63.8,30.06,WNW,292,1.0,9.0,55,0.00,,,0.00,Weather View 32 v70,2013-08-20 21:13:00,
2013-08-20 17:19:00,81.5,64.2,30.06,SW,216,2.0,9.0,56,0.00,,,0.00,Weather View 32 v70,2013-08-20 21:19:00,
2013-08-20 17:24:00,81.8,64.0,30.06,North,353,1.0,9.0,55,0.00,,,0.00,Weather View 32 v70,2013-08-20 21:24:00,
2013-08-20 17:29:00,81.6,63.3,30.06,NNW,339,2.0,9.0,54,0.00,,,0.00,Weather View 32 v70,2013-08-20 21:29:00,
2013-08-20 17:34:00,81.6,63.3,30.06,NNW,343,5.0,9.0,54,0.00,,,0.00,Weather View 32 v70,2013-08-20 21:34:00,
2013-08-20 17:39:00,81.1,62.8,30.07,NNW,333,5.0,9.0,54,0.00,,,0.00,Weather View 32 v70,2013-08-20 21:39:00,
2013-08-20 17:44:00,80.9,62.1,30.07,North,350,4.0,8.0,53,0.00,,,0.00,Weather View 32 v70,2013-08-20 21:44:00,
2013-08-20 17:49:00,80.9,63.7,30.07,NW,313,2.0,8.0,56,0.00,,,0.00,Weather View 32 v70,2013-08-20 21:49:00,
2013-08-20 17:54:00,80.6,64.4,30.07,WSW,237,0.0,8.0,58,0.00,,,0.00,Weather View 32 v70,2013-08-20 21:54:00,
2013-08-20 17:59:00,80.7,63.0,30.08,NW,322,3.0,8.0,55,0.00,,,0.00,Weather View 32 v70,2013-08-20 21:59:00,
2013-08-20 18:04:00,80.4,63.2,30.07,NW,304,1.0,8.0,56,0.00,,,0.00,Weather View 32 v70,2013-08-20 22:04:00,
2013-08-20 18:09:00,80.4,62.7,30.07,NNW,329,3.0,8.0,55,0.00,,,0.00,Weather View 32 v70,2013-08-20 22:09:00,
2013-08-20 18:14:00,80.2,63.5,30.07,SW,231,1.0,8.0,57,0.00,,,0.00,Weather View 32 v70,2013-08-20 22:14:00,
2013-08-20 18:19:00,80.2,63.5,30.07,NNE,24,3.0,8.0,57,0.00,,,0.00,Weather View 32 v70,2013-08-20 22:19:00,
2013-08-20 18:24:00,79.8,64.1,30.08,NW,312,0.0,8.0,59,0.00,,,0.00,Weather View 32 v70,2013-08-20 22:24:00,
2013-08-20 18:29:00,79.7,64.0,30.07,NNW,328,1.0,8.0,59,0.00,,,0.00,Weather View 32 v70,2013-08-20 22:29:00,
2013-08-20 18:34:00,79.5,64.3,30.07,WNW,300,0.0,7.0,60,0.00,,,0.00,Weather View 32 v70,2013-08-20 22:34:00,
2013-08-20 18:39:00,78.9,64.3,30.08,WSW,251,0.0,7.0,61,0.00,,,0.00,Weather View 32 v70,2013-08-20 22:39:00,
2013-08-20 18:44:00,78.8,65.1,30.08,WSW,258,0.0,7.0,63,0.00,,,0.00,Weather View 32 v70,2013-08-20 22:44:00,
2013-08-20 18:49:00,78.2,65.9,30.08,WSW,258,0.0,7.0,66,0.00,,,0.00,Weather View 32 v70,2013-08-20 22:49:00,
2013-08-20 18:54:00,77.7,66.7,30.08,WSW,258,0.0,7.0,69,0.00,,,0.00,Weather View 32 v70,2013-08-20 22:54:00,
2013-08-20 18:59:00,77.0,66.4,30.08,West,262,0.0,5.0,70,0.00,,,0.00,Weather View 32 v70,2013-08-20 22:59:00,
2013-08-20 19:04:00,76.2,67.3,30.09,WSW,245,0.0,3.0,74,0.00,,,0.00,Weather View 32 v70,2013-08-20 23:04:00,
2013-08-20 19:09:00,75.5,67.0,30.09,West,266,0.0,3.0,75,0.00,,,0.00,Weather View 32 v70,2013-08-20 23:09:00,
2013-08-20 19:14:00,74.8,67.1,30.09,West,267,0.0,3.0,77,0.00,,,0.00,Weather View 32 v70,2013-08-20 23:14:00,
2013-08-20 19:19:00,74.4,67.4,30.09,West,267,0.0,3.0,79,0.00,,,0.00,Weather View 32 v70,2013-08-20 23:19:00,
2013-08-20 19:24:00,73.7,67.1,30.09,West,266,0.0,2.0,80,0.00,,,0.00,Weather View 32 v70,2013-08-20 23:24:00,
2013-08-20 19:29:00,73.0,66.4,30.10,West,268,0.0,2.0,80,0.00,,,0.00,Weather View 32 v70,2013-08-20 23:29:00,
2013-08-20 19:34:00,72.3,65.4,30.10,West,266,0.0,2.0,79,0.00,,,0.00,Weather View 32 v70,2013-08-20 23:34:00,
2013-08-20 19:39:00,71.6,65.1,30.10,West,272,0.0,2.0,80,0.00,,,0.00,Weather View 32 v70,2013-08-20 23:39:00,
2013-08-20 19:44:00,71.4,65.2,30.10,West,266,0.0,2.0,81,0.00,,,0.00,Weather View 32 v70,2013-08-20 23:44:00,
2013-08-20 19:49:00,71.0,65.2,30.11,NW,316,1.0,2.0,82,0.00,,,0.00,Weather View 32 v70,2013-08-20 23:49:00,
2013-08-20 19:54:00,70.5,64.7,30.11,South,190,0.0,2.0,82,0.00,,,0.00,Weather View 32 v70,2013-08-20 23:54:00,
2013-08-20 19:59:00,69.9,64.5,30.11,NNW,327,0.0,2.0,83,0.00,,,0.00,Weather View 32 v70,2013-08-20 23:59:00,
2013-08-20 20:04:00,69.4,64.3,30.11,SE,144,0.0,1.0,84,0.00,,,0.00,Weather View 32 v70,2013-08-21 00:04:00,
2013-08-20 20:09:00,69.0,64.3,30.11,SSE,157,0.0,1.0,85,0.00,,,0.00,Weather View 32 v70,2013-08-21 00:09:00,
2013-08-20 20:14:00,68.7,64.0,30.11,SSE,156,0.0,1.0,85,0.00,,,0.00,Weather View 32 v70,2013-08-21 00:14:00,
2013-08-20 20:19:00,68.3,63.6,30.12,SSE,157,0.0,1.0,85,0.00,,,0.00,Weather View 32 v70,2013-08-21 00:19:00,
2013-08-20 20:24:00,68.1,63.7,30.12,NNW,329,0.0,1.0,86,0.00,,,0.00,Weather View 32 v70,2013-08-21 00:24:00,
2013-08-20 20:29:00,67.8,63.8,30.12,ENE,61,0.0,1.0,87,0.00,,,0.00,Weather View 32 v70,2013-08-21 00:29:00,
2013-08-20 20:34:00,67.8,63.8,30.12,NE,35,0.0,1.0,87,0.00,,,0.00,Weather View 32 v70,2013-08-21 00:34:00,
2013-08-20 20:39:00,67.4,63.7,30.13,NNW,340,0.0,1.0,88,0.00,,,0.00,Weather View 32 v70,2013-08-21 00:39:00,
2013-08-20 20:44:00,66.7,63.0,30.13,North,353,1.0,1.0,88,0.00,,,0.00,Weather View 32 v70,2013-08-21 00:44:00,
2013-08-20 20:49:00,66.5,62.8,30.13,NNW,343,0.0,1.0,88,0.00,,,0.00,Weather View 32 v70,2013-08-21 00:49:00,
2013-08-20 20:54:00,66.5,62.8,30.13,WNW,282,0.0,1.0,88,0.00,,,0.00,Weather View 32 v70,2013-08-21 00:54:00,
2013-08-20 20:59:00,66.5,62.8,30.13,West,267,0.0,1.0,88,0.00,,,0.00,Weather View 32 v70,2013-08-21 00:59:00,
2013-08-20 21:04:00,66.2,62.8,30.14,NW,307,0.0,1.0,89,0.00,,,0.00,Weather View 32 v70,2013-08-21 01:04:00,
2013-08-20 21:09:00,65.8,62.5,30.14,NW,307,0.0,1.0,89,0.00,,,0.00,Weather View 32 v70,2013-08-21 01:09:00,
2013-08-20 21:14:00,65.6,62.3,30.14,NW,309,0.0,1.0,89,0.00,,,0.00,Weather View 32 v70,2013-08-21 01:14:00,
2013-08-20 21:19:00,65.4,62.1,30.14,WSW,241,0.0,1.0,89,0.00,,,0.00,Weather View 32 v70,2013-08-21 01:19:00,
2013-08-20 21:24:00,65.4,62.4,30.15,East,81,0.0,1.0,90,0.00,,,0.00,Weather View 32 v70,2013-08-21 01:24:00,
2013-08-20 21:29:00,65.3,62.3,30.14,ESE,121,0.0,1.0,90,0.00,,,0.00,Weather View 32 v70,2013-08-21 01:29:00,
2013-08-20 21:34:00,65.4,62.4,30.15,NE,48,0.0,1.0,90,0.00,,,0.00,Weather View 32 v70,2013-08-21 01:34:00,
2013-08-20 21:39:00,65.4,62.7,30.15,North,2,0.0,1.0,91,0.00,,,0.00,Weather View 32 v70,2013-08-21 01:39:00,
2013-08-20 21:44:00,65.4,62.7,30.15,NNE,26,0.0,1.0,91,0.00,,,0.00,Weather View 32 v70,2013-08-21 01:44:00,
2013-08-20 21:49:00,65.3,62.6,30.16,North,5,0.0,1.0,91,0.00,,,0.00,Weather View 32 v70,2013-08-21 01:49:00,
2013-08-20 21:54:00,65.3,62.6,30.16,North,353,0.0,1.0,91,0.00,,,0.00,Weather View 32 v70,2013-08-21 01:54:00,
2013-08-20 21:59:00,64.9,62.2,30.15,NNE,13,0.0,1.0,91,0.00,,,0.00,Weather View 32 v70,2013-08-21 01:59:00,
2013-08-20 22:04:00,64.9,62.2,30.16,NW,312,0.0,1.0,91,0.00,,,0.00,Weather View 32 v70,2013-08-21 02:04:00,
2013-08-20 22:09:00,64.7,62.0,30.16,NNE,16,0.0,1.0,91,0.00,,,0.00,Weather View 32 v70,2013-08-21 02:09:00,
2013-08-20 22:14:00,64.5,61.8,30.15,WNW,288,0.0,1.0,91,0.00,,,0.00,Weather View 32 v70,2013-08-21 02:14:00,
2013-08-20 22:19:00,64.4,61.7,30.15,NNE,26,0.0,1.0,91,0.00,,,0.00,Weather View 32 v70,2013-08-21 02:19:00,
2013-08-20 22:24:00,64.2,61.5,30.16,NW,316,0.0,1.0,91,0.00,,,0.00,Weather View 32 v70,2013-08-21 02:24:00,
2013-08-20 22:29:00,64.2,61.5,30.16,North,360,0.0,1.0,91,0.00,,,0.00,Weather View 32 v70,2013-08-21 02:29:00,
2013-08-20 22:34:00,64.0,61.6,30.16,WNW,300,0.0,1.0,92,0.00,,,0.00,Weather View 32 v70,2013-08-21 02:34:00,
2013-08-20 22:39:00,63.8,61.4,30.16,ENE,59,0.0,1.0,92,0.00,,,0.00,Weather View 32 v70,2013-08-21 02:39:00,
2013-08-20 22:44:00,63.6,61.2,30.16,SSE,162,0.0,1.0,92,0.00,,,0.00,Weather View 32 v70,2013-08-21 02:44:00,
2013-08-20 22:49:00,63.5,61.1,30.16,NW,322,0.0,1.0,92,0.00,,,0.00,Weather View 32 v70,2013-08-21 02:49:00,
2013-08-20 22:54:00,63.5,61.1,30.16,SE,144,0.0,1.0,92,0.00,,,0.00,Weather View 32 v70,2013-08-21 02:54:00,
2013-08-20 22:59:00,63.3,60.3,30.16,SSE,154,0.0,1.0,90,0.00,,,0.00,Weather View 32 v70,2013-08-21 02:59:00,
2013-08-20 23:04:00,63.3,60.3,30.16,ESE,118,0.0,1.0,90,0.00,,,0.00,Weather View 32 v70,2013-08-21 03:04:00,
2013-08-20 23:09:00,63.1,60.1,30.17,ENE,59,0.0,1.0,90,0.00,,,0.00,Weather View 32 v70,2013-08-21 03:09:00,
2013-08-20 23:14:00,62.9,59.9,30.17,SE,136,0.0,1.0,90,0.00,,,0.00,Weather View 32 v70,2013-08-21 03:14:00,
2013-08-20 23:19:00,62.9,59.9,30.17,SSE,163,0.0,1.0,90,0.00,,,0.00,Weather View 32 v70,2013-08-21 03:19:00,
2013-08-20 23:24:00,62.9,59.9,30.17,South,179,0.0,1.0,90,0.00,,,0.00,Weather View 32 v70,2013-08-21 03:24:00,
2013-08-20 23:29:00,62.7,59.7,30.17,North,5,1.0,1.0,90,0.00,,,0.00,Weather View 32 v70,2013-08-21 03:29:00,
2013-08-20 23:34:00,62.6,59.6,30.17,ENE,64,0.0,1.0,90,0.00,,,0.00,Weather View 32 v70,2013-08-21 03:34:00,
2013-08-20 23:39:00,62.7,60.0,30.17,NW,312,0.0,1.0,91,0.00,,,0.00,Weather View 32 v70,2013-08-21 03:39:00,
2013-08-20 23:44:00,62.7,60.0,30.18,North,355,0.0,1.0,91,0.00,,,0.00,Weather View 32 v70,2013-08-21 03:44:00,
2013-08-20 23:49:00,62.7,60.0,30.17,North,3,0.0,1.0,91,0.00,,,0.00,Weather View 32 v70,2013-08-21 03:49:00,
2013-08-20 23:54:00,62.6,59.9,30.18,SE,135,0.0,1.0,91,0.00,,,0.00,Weather View 32 v70,2013-08-21 03:54:00,
2013-08-20 23:59:00,62.4,59.7,30.18,North,11,0.0,1.0,91,0.00,,,0.00,Weather View 32 v70,2013-08-21 03:59:00,